createdAt,value
2022-10-02T00:01:13.501Z,16.20
2022-10-02T00:03:43.035Z,16.10
2022-10-02T00:06:15.896Z,16.10
2022-10-02T00:08:46.277Z,16.20
2022-10-02T00:11:16.379Z,16.20
2022-10-02T00:13:46.870Z,16.20
2022-10-02T00:16:20.763Z,16.20
2022-10-02T00:18:49.057Z,16.20
2022-10-02T00:21:26.269Z,16.10
2022-10-02T00:23:59.317Z,16.10
2022-10-02T00:26:29.444Z,16.10
2022-10-02T00:29:01.556Z,16.00
2022-10-02T00:31:33.852Z,16.00
2022-10-02T00:34:10.816Z,16.00
2022-10-02T00:36:46.223Z,16.00
2022-10-02T00:39:20.840Z,16.10
2022-10-02T00:41:58.593Z,16.20
2022-10-02T00:44:32.132Z,16.20
2022-10-02T00:47:03.028Z,16.20
2022-10-02T00:49:41.159Z,16.10
2022-10-02T00:52:20.755Z,16.10
2022-10-02T00:55:12.880Z,16.20
2022-10-02T00:57:58.680Z,16.20
2022-10-02T01:00:27.479Z,16.10
2022-10-02T01:03:18.042Z,16.10
2022-10-02T01:05:46.496Z,16.10
2022-10-02T01:08:15.159Z,16.10
2022-10-02T01:10:45.005Z,16.20
2022-10-02T01:13:14.017Z,16.20
2022-10-02T01:15:55.082Z,16.20
2022-10-02T01:18:23.678Z,16.20
2022-10-02T01:20:56.016Z,16.20
2022-10-02T01:23:31.206Z,16.10
2022-10-02T01:26:03.368Z,16.10
2022-10-02T01:28:31.944Z,16.10
2022-10-02T01:31:07.528Z,16.20
2022-10-02T01:33:36.344Z,16.10
2022-10-02T01:36:05.088Z,16.10
2022-10-02T01:38:37.027Z,16.10
2022-10-02T01:41:07.571Z,16.00
2022-10-02T01:43:41.097Z,16.10
2022-10-02T01:46:27.522Z,16.10
2022-10-02T01:49:09.875Z,16.10
2022-10-02T01:51:57.510Z,16.10
2022-10-02T01:54:38.909Z,16.10
2022-10-02T01:57:20.139Z,16.10
2022-10-02T01:59:59.398Z,16.10
2022-10-02T02:02:35.357Z,16.10
2022-10-02T02:05:10.565Z,16.20
2022-10-02T02:07:48.311Z,16.10
2022-10-02T02:10:24.060Z,16.10
2022-10-02T02:13:00.749Z,16.10
2022-10-02T02:15:36.284Z,16.10
2022-10-02T02:18:12.016Z,16.20
2022-10-02T02:20:46.241Z,16.20
2022-10-02T02:23:18.122Z,16.20
2022-10-02T02:25:52.020Z,16.30
2022-10-02T02:28:25.952Z,16.20
2022-10-02T02:30:56.479Z,16.20
2022-10-02T02:33:29.039Z,16.20
2022-10-02T02:36:03.020Z,16.20
2022-10-02T02:38:34.235Z,16.20
2022-10-02T02:41:07.235Z,16.20
2022-10-02T02:43:43.875Z,16.20
2022-10-02T02:46:20.344Z,16.20
2022-10-02T02:48:55.835Z,16.20
2022-10-02T02:51:32.258Z,16.10
2022-10-02T02:54:07.486Z,16.20
2022-10-02T02:56:39.071Z,16.20
2022-10-02T02:59:11.732Z,16.20
2022-10-02T03:01:39.961Z,16.20
2022-10-02T03:04:13.468Z,16.20
2022-10-02T03:06:45.353Z,16.20
2022-10-02T03:09:16.081Z,16.20
2022-10-02T03:11:53.069Z,16.30
2022-10-02T03:14:58.502Z,16.20
2022-10-02T03:17:36.763Z,16.20
2022-10-02T03:20:11.701Z,16.20
2022-10-02T03:22:47.828Z,16.30
2022-10-02T03:25:24.397Z,16.20
2022-10-02T03:28:01.980Z,16.20
2022-10-02T03:30:36.610Z,16.20
2022-10-02T03:33:06.803Z,16.20
2022-10-02T03:35:35.314Z,16.10
2022-10-02T03:38:07.073Z,16.10
2022-10-02T03:40:35.175Z,16.00
2022-10-02T03:43:03.743Z,16.00
2022-10-02T03:45:50.462Z,15.90
2022-10-02T03:48:20.697Z,15.90
2022-10-02T03:50:50.767Z,15.80
2022-10-02T03:53:21.109Z,15.70
2022-10-02T03:55:53.539Z,15.70
2022-10-02T03:58:21.756Z,15.70
2022-10-02T04:01:03.667Z,15.70
2022-10-02T04:03:40.588Z,15.70
2022-10-02T04:06:16.651Z,15.70
2022-10-02T04:08:49.252Z,15.70
2022-10-02T04:11:25.232Z,15.60
2022-10-02T04:14:01.008Z,15.70
2022-10-02T04:16:34.838Z,15.70
2022-10-02T04:19:12.077Z,15.60
2022-10-02T04:21:45.048Z,15.60
2022-10-02T04:24:19.895Z,15.60
2022-10-02T04:27:03.896Z,15.50
2022-10-02T04:29:40.327Z,15.50
2022-10-02T04:32:15.133Z,15.50
2022-10-02T04:34:44.963Z,15.50
2022-10-02T04:37:33.567Z,15.60
2022-10-02T04:40:34.280Z,15.60
2022-10-02T04:43:24.945Z,15.60
2022-10-02T04:46:08.565Z,15.60
2022-10-02T04:49:00.746Z,15.60
2022-10-02T04:51:50.726Z,15.60
2022-10-02T04:54:35.676Z,15.60
2022-10-02T04:57:19.875Z,15.70
2022-10-02T05:00:02.134Z,15.70
2022-10-02T05:02:41.020Z,15.80
2022-10-02T05:05:26.649Z,15.80
2022-10-02T05:08:13.495Z,15.80
2022-10-02T05:10:54.338Z,15.90
2022-10-02T05:13:39.017Z,15.80
2022-10-02T05:16:30.978Z,15.80
2022-10-02T05:19:04.954Z,15.90
2022-10-02T05:21:50.369Z,15.90
2022-10-02T05:24:47.823Z,15.90
2022-10-02T05:27:36.117Z,15.90
2022-10-02T05:30:09.311Z,15.90
2022-10-02T05:32:58.957Z,15.90
2022-10-02T05:35:36.322Z,16.00
2022-10-02T05:38:17.520Z,16.10
2022-10-02T05:40:57.574Z,16.20
2022-10-02T05:43:32.486Z,16.20
2022-10-02T05:46:04.552Z,16.20
2022-10-02T05:48:39.325Z,16.20
2022-10-02T05:51:11.871Z,16.20
2022-10-02T05:53:45.585Z,16.20
2022-10-02T05:56:22.106Z,16.20
2022-10-02T05:58:55.485Z,16.30
2022-10-02T06:01:28.608Z,16.30
2022-10-02T06:04:04.654Z,16.20
2022-10-02T06:06:39.200Z,16.10
2022-10-02T06:09:19.591Z,16.10
2022-10-02T06:11:57.209Z,16.10
2022-10-02T06:14:31.881Z,16.10
2022-10-02T06:17:05.581Z,16.00
2022-10-02T06:19:38.973Z,16.00
2022-10-02T06:22:12.472Z,16.00
2022-10-02T06:24:46.409Z,16.00
2022-10-02T06:27:29.064Z,16.10
2022-10-02T06:30:03.715Z,16.10
2022-10-02T06:32:40.486Z,16.10
2022-10-02T06:35:14.216Z,16.00
2022-10-02T06:37:56.697Z,16.00
2022-10-02T06:40:48.023Z,15.90
2022-10-02T06:43:35.149Z,15.90
2022-10-02T06:46:14.940Z,16.00
2022-10-02T06:48:54.715Z,16.10
2022-10-02T06:51:32.621Z,16.20
2022-10-02T06:54:17.114Z,16.30
2022-10-02T06:57:02.451Z,16.30
2022-10-02T06:59:44.165Z,16.40
2022-10-02T07:02:27.241Z,16.30
2022-10-02T07:05:30.253Z,16.20
2022-10-02T07:08:06.714Z,16.10
2022-10-02T07:10:40.043Z,16.10
2022-10-02T07:13:23.192Z,16.10
2022-10-02T07:16:18.577Z,16.20
2022-10-02T07:19:04.619Z,16.20
2022-10-02T07:21:45.915Z,16.30
2022-10-02T07:24:33.427Z,16.30
2022-10-02T07:27:06.131Z,16.30
2022-10-02T07:29:47.214Z,16.40
2022-10-02T07:32:41.291Z,16.40
2022-10-02T07:35:27.916Z,16.50
2022-10-02T07:38:11.853Z,16.60
2022-10-02T07:40:47.936Z,16.50
2022-10-02T07:43:33.351Z,16.50
2022-10-02T07:46:14.960Z,16.40
2022-10-02T07:49:04.110Z,16.20
2022-10-02T07:51:50.891Z,15.80
2022-10-02T07:54:54.357Z,15.70
2022-10-02T07:57:31.722Z,15.60
2022-10-02T08:00:06.272Z,15.70
2022-10-02T08:02:46.172Z,15.80
2022-10-02T08:05:20.457Z,16.00
2022-10-02T08:07:56.808Z,16.10
2022-10-02T08:10:27.745Z,16.20
2022-10-02T08:13:04.172Z,16.30
2022-10-02T08:15:39.272Z,16.40
2022-10-02T08:18:34.210Z,16.40
2022-10-02T08:21:06.717Z,16.50
2022-10-02T08:23:37.790Z,16.50
2022-10-02T08:26:14.916Z,16.50
2022-10-02T08:28:48.025Z,16.50
2022-10-02T08:31:16.469Z,16.60
2022-10-02T08:33:44.720Z,16.70
2022-10-02T08:36:39.961Z,16.80
2022-10-02T08:39:17.033Z,17.00
2022-10-02T08:41:58.498Z,17.50
2022-10-02T08:44:52.467Z,17.80
2022-10-02T08:47:40.634Z,18.40
2022-10-02T08:50:41.922Z,19.20
2022-10-02T08:53:23.070Z,19.80
2022-10-02T08:56:09.617Z,20.40
2022-10-02T08:59:10.725Z,20.60
2022-10-02T09:02:13.826Z,20.60
2022-10-02T09:05:29.950Z,19.70
2022-10-02T09:08:36.071Z,19.20
2022-10-02T09:11:37.253Z,19.00
2022-10-02T09:14:37.772Z,19.00
2022-10-02T09:17:32.609Z,18.90
2022-10-02T09:20:32.217Z,18.90
2022-10-02T09:23:31.533Z,18.70
2022-10-02T09:26:14.265Z,18.60
2022-10-02T09:29:29.271Z,18.30
2022-10-02T09:32:43.261Z,18.20
2022-10-02T09:35:40.559Z,18.20
2022-10-02T09:38:27.259Z,19.00
2022-10-02T09:41:05.561Z,19.60
2022-10-02T09:43:44.016Z,19.80
2022-10-02T09:46:27.464Z,20.10
2022-10-02T09:49:20.140Z,20.40
2022-10-02T09:52:11.746Z,20.70
2022-10-02T09:55:05.926Z,20.70
2022-10-02T09:57:55.584Z,20.80
2022-10-02T10:00:26.929Z,21.00
2022-10-02T10:03:15.854Z,21.30
2022-10-02T10:05:54.122Z,21.50
2022-10-02T10:08:40.928Z,21.80
2022-10-02T10:11:16.202Z,22.00
2022-10-02T10:13:52.073Z,22.20
2022-10-02T10:16:42.109Z,22.40
2022-10-02T10:19:27.792Z,22.50
2022-10-02T10:22:06.238Z,22.80
2022-10-02T10:24:52.229Z,23.10
2022-10-02T10:27:38.880Z,23.30
2022-10-02T10:30:14.835Z,23.40
2022-10-02T10:32:57.105Z,23.40
2022-10-02T10:35:29.703Z,23.60
2022-10-02T10:38:30.202Z,23.70
2022-10-02T10:41:06.295Z,23.50
2022-10-02T10:44:13.202Z,23.40
2022-10-02T10:47:18.332Z,23.40
2022-10-02T10:50:04.564Z,23.20
2022-10-02T10:52:55.535Z,23.00
2022-10-02T10:55:41.927Z,22.90
2022-10-02T10:58:21.811Z,22.80
2022-10-02T11:01:08.155Z,22.70
2022-10-02T11:04:04.731Z,22.10
2022-10-02T11:07:08.061Z,21.70
2022-10-02T11:10:00.905Z,22.30
2022-10-02T11:13:16.578Z,22.70
2022-10-02T11:15:59.875Z,22.70
2022-10-02T11:19:01.176Z,22.80
2022-10-02T11:21:59.145Z,22.80
2022-10-02T11:24:56.033Z,22.10
2022-10-02T11:27:45.148Z,21.90
2022-10-02T11:30:37.110Z,21.80
2022-10-02T11:33:35.046Z,21.90
2022-10-02T11:36:41.725Z,22.80
2022-10-02T11:39:24.456Z,23.30
2022-10-02T11:42:11.407Z,23.60
2022-10-02T11:44:50.271Z,23.90
2022-10-02T11:47:31.921Z,23.90
2022-10-02T11:50:23.015Z,23.70
2022-10-02T11:52:59.996Z,23.70
2022-10-02T11:55:33.384Z,23.80
2022-10-02T11:58:08.050Z,23.80
2022-10-02T12:00:45.361Z,23.80
2022-10-02T12:03:17.122Z,23.80
2022-10-02T12:05:55.343Z,23.90
2022-10-02T12:08:34.335Z,23.90
2022-10-02T12:11:08.267Z,23.90
2022-10-02T12:13:59.904Z,24.00
2022-10-02T12:16:33.471Z,24.10
2022-10-02T12:19:07.298Z,24.20
2022-10-02T12:22:03.292Z,24.30
2022-10-02T12:24:56.430Z,24.40
2022-10-02T12:27:30.544Z,24.60
2022-10-02T12:30:04.223Z,24.70
2022-10-02T12:32:53.150Z,24.70
2022-10-02T12:35:31.504Z,24.60
2022-10-02T12:38:09.642Z,24.50
2022-10-02T12:40:43.893Z,24.20
2022-10-02T12:43:21.570Z,23.90
2022-10-02T12:46:03.940Z,23.80
2022-10-02T12:48:46.877Z,23.70
2022-10-02T12:51:27.106Z,23.90
2022-10-02T12:54:10.251Z,24.10
2022-10-02T12:56:46.938Z,24.40
2022-10-02T12:59:18.890Z,24.60
2022-10-02T13:02:10.678Z,24.80
2022-10-02T13:04:52.552Z,25.00
2022-10-02T13:07:37.609Z,25.20
2022-10-02T13:10:14.140Z,25.30
2022-10-02T13:12:51.101Z,25.30
2022-10-02T13:15:29.216Z,25.30
2022-10-02T13:18:03.114Z,25.30
2022-10-02T13:20:38.044Z,25.20
2022-10-02T13:23:13.050Z,25.20
2022-10-02T13:25:54.556Z,25.20
2022-10-02T13:28:50.808Z,25.10
2022-10-02T13:31:27.903Z,24.90
2022-10-02T13:34:06.952Z,24.80
2022-10-02T13:36:51.579Z,24.60
2022-10-02T13:39:33.762Z,24.40
2022-10-02T13:42:18.542Z,24.20
2022-10-02T13:44:53.826Z,23.30
2022-10-02T13:47:36.947Z,22.80
2022-10-02T13:50:19.544Z,22.70
2022-10-02T13:53:09.460Z,22.60
2022-10-02T13:55:43.556Z,22.60
2022-10-02T13:58:30.342Z,22.70
2022-10-02T14:01:14.080Z,22.60
2022-10-02T14:03:58.376Z,22.60
2022-10-02T14:06:31.513Z,22.60
2022-10-02T14:09:15.896Z,22.50
2022-10-02T14:11:57.232Z,22.50
2022-10-02T14:14:48.671Z,22.50
2022-10-02T14:17:26.307Z,22.50
2022-10-02T14:20:19.250Z,22.50
2022-10-02T14:22:55.040Z,23.20
2022-10-02T14:25:35.155Z,23.50
2022-10-02T14:28:23.968Z,23.60
2022-10-02T14:31:06.220Z,23.70
2022-10-02T14:33:49.670Z,23.70
2022-10-02T14:36:20.216Z,23.70
2022-10-02T14:38:55.350Z,23.60
2022-10-02T14:41:35.025Z,23.60
2022-10-02T14:44:11.228Z,23.60
2022-10-02T14:46:49.640Z,23.50
2022-10-02T14:49:33.496Z,23.40
2022-10-02T14:52:21.757Z,23.30
2022-10-02T14:55:03.228Z,23.20
2022-10-02T14:57:49.435Z,23.20
2022-10-02T15:00:19.275Z,23.00
2022-10-02T15:02:58.748Z,23.00
2022-10-02T15:05:54.412Z,23.00
2022-10-02T15:08:25.449Z,23.00
2022-10-02T15:10:55.934Z,22.90
2022-10-02T15:13:31.136Z,22.80
2022-10-02T15:16:20.315Z,22.80
2022-10-02T15:18:51.725Z,22.80
2022-10-02T15:21:26.186Z,22.70
2022-10-02T15:23:56.882Z,22.70
2022-10-02T15:26:42.823Z,22.70
2022-10-02T15:29:16.457Z,22.60
2022-10-02T15:32:00.406Z,22.60
2022-10-02T15:34:33.459Z,22.50
2022-10-02T15:37:12.091Z,22.40
2022-10-02T15:39:53.628Z,22.30
2022-10-02T15:42:27.664Z,22.20
2022-10-02T15:45:13.657Z,22.20
2022-10-02T15:47:52.611Z,22.20
2022-10-02T15:50:32.364Z,22.20
2022-10-02T15:53:07.474Z,22.00
2022-10-02T15:55:38.943Z,22.00
2022-10-02T15:58:21.307Z,22.00
2022-10-02T16:01:06.116Z,22.00
2022-10-02T16:03:42.997Z,22.00
2022-10-02T16:06:14.837Z,22.00
2022-10-02T16:08:56.847Z,22.00
2022-10-02T16:11:39.705Z,21.90
2022-10-02T16:14:09.292Z,21.90
2022-10-02T16:16:58.687Z,21.90
2022-10-02T16:19:36.168Z,21.80
2022-10-02T16:22:18.029Z,21.60
2022-10-02T16:24:58.325Z,21.60
2022-10-02T16:27:30.258Z,21.50
2022-10-02T16:30:08.375Z,21.50
2022-10-02T16:32:40.832Z,21.40
2022-10-02T16:35:17.778Z,21.30
2022-10-02T16:37:47.827Z,21.20
2022-10-02T16:40:26.852Z,21.20
2022-10-02T16:43:14.028Z,21.10
2022-10-02T16:45:45.667Z,21.10
2022-10-02T16:48:18.037Z,21.00
2022-10-02T16:50:50.218Z,20.90
2022-10-02T16:53:25.293Z,20.80
2022-10-02T16:55:58.164Z,20.70
2022-10-02T16:58:28.755Z,20.70
2022-10-02T17:01:02.174Z,20.70
2022-10-02T17:03:33.679Z,20.70
2022-10-02T17:06:06.464Z,20.70
2022-10-02T17:08:40.360Z,20.60
2022-10-02T17:11:15.630Z,20.60
2022-10-02T17:13:47.988Z,20.60
2022-10-02T17:16:21.261Z,20.50
2022-10-02T17:18:51.058Z,20.60
2022-10-02T17:21:22.630Z,20.50
2022-10-02T17:23:56.688Z,20.60
2022-10-02T17:26:29.466Z,20.70
2022-10-02T17:29:01.649Z,20.60
2022-10-02T17:31:35.743Z,20.60
2022-10-02T17:34:17.237Z,20.60
2022-10-02T17:36:49.352Z,20.50
2022-10-02T17:39:22.878Z,20.40
2022-10-02T17:41:53.817Z,20.30
2022-10-02T17:44:24.571Z,20.20
2022-10-02T17:47:14.924Z,20.20
2022-10-02T17:49:48.044Z,20.10
2022-10-02T17:52:43.514Z,20.00
2022-10-02T17:55:43.114Z,20.00
2022-10-02T17:58:24.997Z,19.90
2022-10-02T18:00:57.196Z,19.80
2022-10-02T18:03:50.120Z,19.80
2022-10-02T18:06:26.485Z,19.80
2022-10-02T18:09:33.042Z,19.70
2022-10-02T18:12:28.365Z,19.70
2022-10-02T18:15:10.743Z,19.70
2022-10-02T18:17:57.018Z,19.60
2022-10-02T18:20:34.526Z,19.60
2022-10-02T18:23:07.785Z,19.50
2022-10-02T18:25:51.091Z,19.60
2022-10-02T18:28:33.810Z,19.60
2022-10-02T18:31:07.644Z,19.60
2022-10-02T18:34:02.867Z,19.50
2022-10-02T18:36:37.268Z,19.50
2022-10-02T18:39:13.555Z,19.50
2022-10-02T18:41:50.626Z,19.40
2022-10-02T18:44:38.187Z,19.40
2022-10-02T18:47:12.190Z,19.40
2022-10-02T18:49:47.924Z,19.30
2022-10-02T18:52:23.722Z,19.30
2022-10-02T18:54:58.724Z,19.20
2022-10-02T18:57:34.763Z,19.20
2022-10-02T19:00:13.749Z,19.10
2022-10-02T19:02:48.924Z,19.10
2022-10-02T19:05:21.842Z,19.00
2022-10-02T19:07:55.270Z,19.00
2022-10-02T19:10:26.417Z,19.00
2022-10-02T19:12:56.506Z,19.00
2022-10-02T19:15:28.202Z,19.10
2022-10-02T19:18:01.077Z,19.00
2022-10-02T19:20:42.889Z,19.10
2022-10-02T19:23:16.659Z,19.00
2022-10-02T19:25:47.733Z,19.00
2022-10-02T19:28:18.834Z,19.00
2022-10-02T19:30:52.632Z,18.90
2022-10-02T19:33:22.936Z,18.90
2022-10-02T19:35:51.985Z,18.80
2022-10-02T19:38:27.376Z,18.80
2022-10-02T19:40:57.063Z,18.80
2022-10-02T19:43:28.318Z,18.80
2022-10-02T19:46:01.288Z,18.80
2022-10-02T19:48:31.731Z,18.80
2022-10-02T19:51:00.561Z,18.70
2022-10-02T19:53:30.656Z,18.60
2022-10-02T19:55:59.900Z,18.60
2022-10-02T19:58:33.967Z,18.60
2022-10-02T20:01:05.147Z,18.50
2022-10-02T20:03:33.437Z,18.50
2022-10-02T20:06:01.948Z,18.50
2022-10-02T20:08:31.845Z,18.50
2022-10-02T20:11:03.319Z,18.40
2022-10-02T20:13:37.507Z,18.40
2022-10-02T20:16:31.178Z,18.40
2022-10-02T20:18:59.319Z,18.40
2022-10-02T20:21:32.800Z,18.30
2022-10-02T20:24:01.605Z,18.30
2022-10-02T20:26:32.608Z,18.30
2022-10-02T20:29:02.612Z,18.30
2022-10-02T20:31:38.572Z,18.30
2022-10-02T20:34:16.065Z,18.30
2022-10-02T20:36:49.910Z,18.20
2022-10-02T20:39:20.092Z,18.20
2022-10-02T20:41:52.208Z,18.10
2022-10-02T20:44:20.678Z,18.10
2022-10-02T20:47:15.305Z,18.10
2022-10-02T20:49:59.556Z,18.10
2022-10-02T20:53:14.719Z,18.00
2022-10-02T20:55:48.008Z,18.00
2022-10-02T20:58:42.157Z,17.90
2022-10-02T21:01:18.890Z,17.90
2022-10-02T21:04:13.108Z,17.90
2022-10-02T21:07:06.815Z,17.80
2022-10-02T21:10:09.041Z,17.80
2022-10-02T21:13:07.483Z,17.70
2022-10-02T21:15:53.682Z,17.80
2022-10-02T21:19:03.746Z,17.80
2022-10-02T21:22:08.243Z,17.70
2022-10-02T21:25:05.392Z,17.80
2022-10-02T21:28:13.581Z,17.70
2022-10-02T21:30:47.878Z,17.70
2022-10-02T21:33:22.663Z,17.70
2022-10-02T21:35:58.609Z,17.60
2022-10-02T21:38:47.226Z,17.60
2022-10-02T21:41:48.678Z,17.60
2022-10-02T21:45:04.562Z,17.60
2022-10-02T21:47:51.746Z,17.60
2022-10-02T21:50:59.615Z,17.60
2022-10-02T21:54:16.250Z,17.60
2022-10-02T21:57:36.066Z,17.50
2022-10-02T22:00:14.540Z,17.50
2022-10-02T22:03:39.851Z,17.50
2022-10-02T22:06:28.635Z,17.50
2022-10-02T22:09:35.319Z,17.50
2022-10-02T22:12:26.975Z,17.40
2022-10-02T22:15:09.346Z,17.40
2022-10-02T22:17:50.146Z,17.40
2022-10-02T22:20:39.511Z,17.40
2022-10-02T22:23:28.882Z,17.40
2022-10-02T22:26:12.572Z,17.40
2022-10-02T22:28:45.475Z,17.40
2022-10-02T22:31:42.699Z,17.40
2022-10-02T22:34:25.383Z,17.30
2022-10-02T22:37:10.506Z,17.30
2022-10-02T22:39:42.116Z,17.30
2022-10-02T22:42:19.398Z,17.30
2022-10-02T22:44:53.453Z,17.20
2022-10-02T22:47:29.400Z,17.20
2022-10-02T22:50:02.659Z,17.20
2022-10-02T22:52:35.961Z,17.20
2022-10-02T22:55:11.138Z,17.20
2022-10-02T22:57:48.366Z,17.20
2022-10-02T23:00:19.989Z,17.20
2022-10-02T23:02:54.129Z,17.20
2022-10-02T23:05:33.107Z,17.10
2022-10-02T23:08:13.695Z,17.10
2022-10-02T23:10:47.306Z,17.10
2022-10-02T23:13:23.202Z,17.10
2022-10-02T23:15:58.108Z,17.00
2022-10-02T23:18:45.470Z,17.00
2022-10-02T23:21:28.836Z,17.00
2022-10-02T23:24:02.510Z,17.00
2022-10-02T23:26:36.978Z,17.00
2022-10-02T23:29:18.453Z,17.00
2022-10-02T23:31:54.096Z,17.00
2022-10-02T23:34:33.857Z,17.00
2022-10-02T23:37:07.029Z,17.00
2022-10-02T23:39:40.548Z,17.00
2022-10-02T23:42:15.242Z,16.90
2022-10-02T23:44:49.788Z,16.90
2022-10-02T23:47:30.305Z,16.90
2022-10-02T23:50:00.810Z,16.90
2022-10-02T23:52:57.007Z,16.30
2022-10-02T23:55:58.208Z,15.90
2022-10-02T23:58:56.608Z,15.80
